Time;durP1;ratioP1;P1;durP2;ratioP2;P2;SDS_P1;SDS_P2;PMS_P1;PMS_P2;Temp;Humidity;BMP_temperature;BMP_pressure;BME280_temperature;BME280_humidity;BME280_pressure;Samples;Min_cycle;Max_cycle;Signal;HPM_P1;HPM_P2
2021/04/20 00:00:34;;;;;;;16.97;11.30;;;;;;;6.93;96.14;100714.25;4991481;28;20177;-74
2021/04/20 00:02:59;;;;;;;17.00;11.83;;;;;;;6.90;96.21;100720.25;4991716;28;20243;-74
2021/04/20 00:05:25;;;;;;;13.30;9.67;;;;;;;6.90;96.18;100716.72;4995578;28;20252;-74
2021/04/20 00:07:50;;;;;;;11.57;9.20;;;;;;;6.90;96.39;100714.81;4995423;28;20292;-75
2021/04/20 00:10:19;;;;;;;12.03;10.30;;;;;;;6.79;96.39;100707.78;4994141;28;20577;-75
2021/04/20 00:12:45;;;;;;;11.67;8.83;;;;;;;6.74;96.39;100707.84;4995834;28;20195;-74
2021/04/20 00:15:14;;;;;;;11.60;10.40;;;;;;;6.78;96.40;100707.00;4996622;28;20165;-73
2021/04/20 00:17:39;;;;;;;13.07;8.07;;;;;;;6.80;96.39;100701.31;4997228;28;20192;-74
2021/04/20 00:20:08;;;;;;;12.70;11.40;;;;;;;6.73;96.64;100707.03;4995542;28;20185;-74
2021/04/20 00:22:33;;;;;;;10.30;9.33;;;;;;;6.71;96.57;100702.97;4995085;28;20530;-73
2021/04/20 00:24:58;;;;;;;13.80;10.07;;;;;;;6.71;96.80;100700.25;4995209;28;20180;-73
2021/04/20 00:27:24;;;;;;;13.03;10.87;;;;;;;6.65;96.80;100704.06;4995036;28;20204;-74
2021/04/20 00:29:49;;;;;;;11.67;10.50;;;;;;;6.57;97.19;100700.84;4994988;28;20181;-74
2021/04/20 00:32:14;;;;;;;22.17;11.23;;;;;;;6.48;96.77;100696.28;4995086;28;20178;-74
2021/04/20 00:34:40;;;;;;;14.67;9.63;;;;;;;6.38;97.40;100688.19;5026358;28;20660;-74
2021/04/20 00:37:05;;;;;;;12.30;11.20;;;;;;;6.32;97.80;100690.09;4994959;28;20181;-73
2021/04/20 00:39:30;;;;;;;12.10;10.67;;;;;;;6.27;98.02;100687.41;4994983;28;20256;-73
2021/04/20 00:42:03;;;;;;;10.80;8.67;;;;;;;6.30;98.41;100683.31;4994664;28;20189;-74
2021/04/20 00:44:28;;;;;;;7.10;6.37;;;;;;;6.33;98.58;100680.06;4994584;28;20173;-74
2021/04/20 00:46:53;;;;;;;10.00;8.97;;;;;;;6.44;98.69;100682.44;4994573;28;20173;-73
2021/04/20 00:49:18;;;;;;;8.93;8.17;;;;;;;6.46;98.42;100687.59;4994762;28;20176;-74
2021/04/20 00:51:44;;;;;;;13.17;10.93;;;;;;;6.49;98.71;100681.63;4994589;28;20177;-74
2021/04/20 00:54:09;;;;;;;13.83;9.47;;;;;;;6.50;98.17;100692.19;4994564;28;20628;-73
2021/04/20 00:56:34;;;;;;;12.97;10.40;;;;;;;6.54;97.97;100690.56;4994797;28;20184;-74
2021/04/20 00:59:00;;;;;;;14.10;11.13;;;;;;;6.47;97.62;100684.59;4994504;28;20173;-73
2021/04/20 01:01:25;;;;;;;12.23;10.63;;;;;;;6.48;97.82;100688.13;4994412;28;20173;-75
2021/04/20 01:03:50;;;;;;;12.33;10.33;;;;;;;6.39;97.44;100692.53;4994351;28;20169;-74
2021/04/20 01:06:16;;;;;;;16.70;10.30;;;;;;;6.35;97.79;100689.53;4994384;28;20231;-74
2021/04/20 01:08:42;;;;;;;12.53;9.80;;;;;;;6.33;97.95;100689.00;4994211;28;20208;-74
2021/04/20 01:11:08;;;;;;;13.10;11.80;;;;;;;6.29;97.95;100689.84;4994184;28;20219;-74
2021/04/20 01:13:34;;;;;;;11.67;10.47;;;;;;;6.20;97.95;100687.69;4994089;28;20600;-73
2021/04/20 01:16:01;;;;;;;11.87;10.67;;;;;;;6.18;98.26;100689.06;4993066;28;20208;-75
2021/04/20 01:18:28;;;;;;;18.80;12.03;;;;;;;6.12;98.40;100677.41;4994147;28;20219;-75
2021/04/20 01:20:57;;;;;;;12.77;9.73;;;;;;;6.06;98.51;100680.41;4994103;28;20644;-74
2021/04/20 01:23:25;;;;;;;20.73;10.60;;;;;;;6.04;98.76;100682.59;4993993;28;20180;-75
2021/04/20 01:25:50;;;;;;;12.57;9.43;;;;;;;6.00;98.87;100682.31;4993905;28;20268;-74
2021/04/20 01:28:16;;;;;;;17.17;9.03;;;;;;;5.90;98.96;100685.88;4993913;28;20288;-74
2021/04/20 01:30:41;;;;;;;9.93;8.97;;;;;;;5.86;99.06;100679.34;4993971;28;20180;-74
2021/04/20 01:33:09;;;;;;;11.33;10.13;;;;;;;5.86;99.26;100679.34;4993827;28;20244;-74
2021/04/20 01:35:36;;;;;;;14.57;10.70;;;;;;;5.84;99.14;100676.09;4993889;28;20653;-74
2021/04/20 01:38:04;;;;;;;16.10;11.20;;;;;;;5.82;99.63;100675.56;4993814;28;20690;-74
2021/04/20 01:40:30;;;;;;;10.50;9.13;;;;;;;5.85;99.68;100677.72;4993550;28;20189;-74
2021/04/20 01:42:58;;;;;;;15.60;10.53;;;;;;;5.90;99.29;100671.50;4993616;28;20180;-74
2021/04/20 01:45:23;;;;;;;13.20;9.50;;;;;;;5.87;99.47;100670.13;4993540;28;20249;-74
2021/04/20 01:47:49;;;;;;;13.67;11.67;;;;;;;5.86;99.54;100676.63;4993603;28;20205;-74
2021/04/20 01:50:14;;;;;;;13.53;10.50;;;;;;;5.81;99.36;100675.84;4993634;28;20176;-74
2021/04/20 01:52:43;;;;;;;26.20;10.60;;;;;;;5.89;99.54;100676.06;4993727;28;20705;-76
2021/04/20 01:55:09;;;;;;;9.97;8.97;;;;;;;5.91;99.60;100684.78;4993407;28;20236;-74
2021/04/20 01:57:35;;;;;;;10.60;9.37;;;;;;;5.83;99.56;100668.25;4993611;28;20181;-74
2021/04/20 02:00:06;;;;;;;11.60;10.27;;;;;;;5.88;99.67;100674.47;4993360;28;20178;-74
2021/04/20 02:02:32;;;;;;;14.80;10.60;;;;;;;5.79;99.41;100673.41;4993305;28;20176;-73
2021/04/20 02:04:58;;;;;;;13.60;10.30;;;;;;;5.70;99.14;100672.31;4993574;28;20191;-74
2021/04/20 02:07:23;;;;;;;12.13;10.70;;;;;;;5.63;99.20;100680.72;4993196;28;20205;-73
2021/04/20 02:09:49;;;;;;;9.27;8.37;;;;;;;5.63;99.43;100679.91;4993205;28;20185;-74
2021/04/20 02:12:14;;;;;;;15.73;9.00;;;;;;;5.56;99.31;100682.09;4993030;28;20700;-75
2021/04/20 02:14:40;;;;;;;15.07;11.27;;;;;;;5.60;99.07;100688.59;4992976;28;20177;-74
2021/04/20 02:17:05;;;;;;;11.13;8.90;;;;;;;5.65;99.35;100685.91;4993025;28;20188;-75
2021/04/20 02:19:31;;;;;;;9.17;7.77;;;;;;;5.67;99.05;100681.81;4991585;28;20187;-74
2021/04/20 02:21:58;;;;;;;9.63;8.60;;;;;;;5.60;98.59;100677.75;4992938;28;20174;-74
2021/04/20 02:24:23;;;;;;;12.83;8.57;;;;;;;5.47;98.48;100679.09;4992875;28;20177;-74
2021/04/20 02:26:48;;;;;;;13.43;8.87;;;;;;;5.49;98.68;100673.41;4992644;28;20739;-73
2021/04/20 02:29:14;;;;;;;11.20;9.93;;;;;;;5.49;98.11;100676.94;4992921;28;20641;-74
2021/04/20 02:31:42;;;;;;;10.63;9.73;;;;;;;5.37;98.28;100679.13;4993205;28;20578;-74
2021/04/20 02:34:09;;;;;;;10.40;9.30;;;;;;;5.27;97.97;100681.81;4992609;28;20177;-73
2021/04/20 02:36:36;;;;;;;13.20;9.00;;;;;;;5.22;98.24;100674.53;4992699;28;20232;-74
2021/04/20 02:39:04;;;;;;;11.27;10.17;;;;;;;5.24;98.35;100674.25;4992664;28;20602;-75
2021/04/20 02:41:30;;;;;;;11.67;8.60;;;;;;;5.19;98.99;100666.09;4992483;28;20190;-74
2021/04/20 02:43:55;;;;;;;9.77;8.23;;;;;;;5.14;99.14;100671.53;4992499;28;20799;-75
2021/04/20 02:46:21;;;;;;;12.73;9.77;;;;;;;5.07;99.20;100678.03;4992441;28;20166;-74
2021/04/20 02:48:48;;;;;;;13.87;10.00;;;;;;;5.12;99.35;100671.78;4992391;28;20200;-75
2021/04/20 02:51:14;;;;;;;10.70;9.70;;;;;;;5.16;99.46;100667.47;4992451;28;20256;-74
2021/04/20 02:53:42;;;;;;;15.50;10.30;;;;;;;5.11;99.05;100662.03;4992287;28;20212;-74
2021/04/20 02:56:15;;;;;;;12.60;9.70;;;;;;;5.02;99.04;100671.78;4992409;28;20184;-74
2021/04/20 02:58:42;;;;;;;14.30;11.30;;;;;;;5.00;99.17;100674.75;4992312;28;20170;-74
2021/04/20 03:01:18;;;;;;;12.87;9.90;;;;;;;4.88;99.05;100666.06;4992162;28;20169;-76
2021/04/20 03:03:46;;;;;;;12.40;10.13;;;;;;;4.82;99.38;100663.63;4992191;28;20191;-75
2021/04/20 03:06:13;;;;;;;16.60;10.07;;;;;;;4.82;99.76;100666.34;4992062;28;20671;-73
2021/04/20 03:08:40;;;;;;;13.63;12.03;;;;;;;4.86;99.99;100675.53;4991958;28;20295;-76
2021/04/20 03:11:14;;;;;;;13.30;10.27;;;;;;;4.89;100.00;100664.97;4992018;28;20540;-74
2021/04/20 03:13:42;;;;;;;14.13;9.03;;;;;;;4.76;100.00;100663.59;4991770;28;20691;-77
2021/04/20 03:16:09;;;;;;;13.53;9.87;;;;;;;4.72;100.00;100672.53;4990735;28;20267;-74
2021/04/20 03:18:34;;;;;;;11.77;9.30;;;;;;;4.67;100.00;100659.00;4991957;28;20184;-74
2021/04/20 03:21:09;;;;;;;17.03;12.73;;;;;;;4.73;100.00;100657.91;4991859;28;20177;-74
2021/04/20 03:23:35;;;;;;;22.40;12.10;;;;;;;4.70;100.00;100667.38;4991724;28;20176;-74
2021/04/20 03:26:01;;;;;;;15.33;11.07;;;;;;;4.72;100.00;100646.28;4991770;28;20173;-74
2021/04/20 03:28:27;;;;;;;11.70;9.13;;;;;;;4.69;100.00;100649.53;4991847;28;20203;-74
2021/04/20 03:30:54;;;;;;;20.47;13.57;;;;;;;4.84;100.00;100645.22;4991725;28;20178;-73
2021/04/20 03:33:36;;;;;;;13.50;11.67;;;;;;;4.85;100.00;100650.38;4991659;28;20669;-74
2021/04/20 03:36:10;;;;;;;14.37;11.63;;;;;;;4.87;100.00;100653.63;4991625;28;20657;-74
2021/04/20 03:38:58;;;;;;;16.23;12.03;;;;;;;4.94;100.00;100651.47;4991110;28;20219;-75
2021/04/20 03:41:27;;;;;;;10.97;9.97;;;;;;;4.85;100.00;100644.94;4991475;28;20679;-74
2021/04/20 03:43:56;;;;;;;19.83;10.13;;;;;;;4.85;100.00;100646.84;4991473;28;20340;-75
2021/04/20 03:46:27;;;;;;;15.93;13.10;;;;;;;4.93;100.00;100649.84;4991557;28;20178;-74
2021/04/20 03:48:59;;;;;;;17.10;11.20;;;;;;;5.00;100.00;100646.88;4991537;28;20205;-74
2021/04/20 03:51:27;;;;;;;20.20;11.77;;;;;;;5.06;100.00;100652.03;4991562;28;20633;-74
2021/04/20 03:53:55;;;;;;;14.97;11.03;;;;;;;5.10;100.00;100652.31;4991338;28;20215;-73
2021/04/20 03:56:26;;;;;;;13.07;9.93;;;;;;;5.16;100.00;100643.09;4991518;28;20185;-74
2021/04/20 03:58:54;;;;;;;19.97;12.23;;;;;;;5.18;100.00;100640.09;4991462;28;20207;-75
2021/04/20 04:01:20;;;;;;;13.73;11.87;;;;;;;5.21;100.00;100640.41;4991552;28;20177;-74
2021/04/20 04:03:47;;;;;;;15.57;12.90;;;;;;;5.26;100.00;100634.97;4991293;28;20188;-74
2021/04/20 04:06:14;;;;;;;17.37;12.83;;;;;;;5.26;100.00;100639.56;4991386;28;20535;-73
2021/04/20 04:08:43;;;;;;;19.37;11.43;;;;;;;5.29;100.00;100645.25;4991440;28;20232;-74
2021/04/20 04:11:10;;;;;;;23.43;11.67;;;;;;;5.15;100.00;100635.22;4991452;28;20688;-74
2021/04/20 04:13:40;;;;;;;17.80;11.87;;;;;;;5.11;100.00;100640.38;4991077;28;20212;-74
2021/04/20 04:16:09;;;;;;;14.67;11.03;;;;;;;5.08;100.00;100646.34;4991572;28;20202;-74
2021/04/20 04:18:35;;;;;;;16.43;10.00;;;;;;;5.04;100.00;100645.22;4991384;28;20178;-74
2021/04/20 04:21:04;;;;;;;16.23;13.03;;;;;;;5.05;100.00;100655.78;4991161;28;20182;-73
2021/04/20 04:23:43;;;;;;;16.10;11.37;;;;;;;5.10;100.00;100649.59;4991076;28;20174;-74
2021/04/20 04:26:13;;;;;;;16.73;12.00;;;;;;;5.10;100.00;100657.72;4991019;28;20598;-74
2021/04/20 04:28:47;;;;;;;16.80;12.17;;;;;;;5.09;100.00;100661.50;4991206;28;20193;-74
2021/04/20 04:31:14;;;;;;;17.07;11.07;;;;;;;5.05;100.00;100661.22;4991260;28;20174;-75
2021/04/20 04:33:41;;;;;;;16.97;12.30;;;;;;;5.00;100.00;100668.53;4991126;28;20176;-74
2021/04/20 04:36:09;;;;;;;12.40;11.10;;;;;;;4.98;100.00;100663.38;4991229;28;20630;-74
2021/04/20 04:38:37;;;;;;;14.17;11.20;;;;;;;4.96;100.00;100665.56;4991201;28;20296;-74
2021/04/20 04:41:03;;;;;;;16.77;10.43;;;;;;;4.97;100.00;100658.25;4991192;28;20559;-74
2021/04/20 04:43:28;;;;;;;12.50;11.33;;;;;;;4.90;100.00;100663.91;4991120;28;20193;-74
2021/04/20 04:45:56;;;;;;;16.20;11.73;;;;;;;4.84;100.00;100661.47;4991286;28;20181;-73
2021/04/20 04:48:22;;;;;;;17.87;9.43;;;;;;;4.82;100.00;100656.31;4990973;28;20696;-74
2021/04/20 04:50:48;;;;;;;14.67;10.80;;;;;;;4.82;100.00;100655.50;4994063;28;20174;-73
2021/04/20 04:53:14;;;;;;;13.80;11.80;;;;;;;4.75;100.00;100664.69;4994894;28;20242;-74
2021/04/20 04:55:39;;;;;;;18.90;12.50;;;;;;;4.75;100.00;100659.25;4994770;28;20240;-73
2021/04/20 04:58:07;;;;;;;15.47;12.40;;;;;;;4.83;100.00;100662.53;4994795;28;20184;-73
2021/04/20 05:00:34;;;;;;;26.00;15.97;;;;;;;4.94;100.00;100654.19;5009740;28;20181;-73
2021/04/20 05:03:00;;;;;;;20.33;13.53;;;;;;;5.05;100.00;100652.28;4994446;28;20641;-75
2021/04/20 05:05:26;;;;;;;24.37;14.80;;;;;;;5.14;100.00;100653.38;4994569;28;20180;-75
2021/04/20 05:07:57;;;;;;;21.93;12.33;;;;;;;5.25;100.00;100655.00;4994577;28;20197;-74
2021/04/20 05:10:23;;;;;;;16.63;11.70;;;;;;;5.31;100.00;100659.34;4994712;28;20687;-74
2021/04/20 05:12:50;;;;;;;23.13;13.13;;;;;;;5.40;100.00;100658.81;4994410;28;20189;-74
2021/04/20 05:15:16;;;;;;;24.33;13.43;;;;;;;5.50;100.00;100658.81;4994505;28;20188;-74
2021/04/20 05:17:43;;;;;;;19.13;12.57;;;;;;;5.58;100.00;100653.63;4994431;28;20177;-74
2021/04/20 05:20:15;;;;;;;18.43;11.90;;;;;;;5.65;100.00;100656.88;4994266;28;20232;-73
2021/04/20 05:22:40;;;;;;;19.77;13.30;;;;;;;5.73;100.00;100660.13;4994234;28;20204;-74
2021/04/20 05:25:12;;;;;;;12.67;11.23;;;;;;;5.80;100.00;100658.75;4994362;28;20220;-75
2021/04/20 05:27:37;;;;;;;19.13;12.27;;;;;;;5.84;100.00;100657.13;4994336;28;20668;-73
2021/04/20 05:30:07;;;;;;;16.10;11.70;;;;;;;5.91;100.00;100656.84;4994120;28;20173;-74
2021/04/20 05:32:36;;;;;;;19.97;13.33;;;;;;;5.94;100.00;100653.63;4994163;28;20177;-74
2021/04/20 05:35:03;;;;;;;18.73;11.50;;;;;;;5.96;100.00;100649.53;4994530;28;20173;-73
2021/04/20 05:37:37;;;;;;;14.47;11.43;;;;;;;5.99;100.00;100652.78;4994236;28;20780;-74
2021/04/20 05:40:09;;;;;;;21.57;12.47;;;;;;;6.04;100.00;100653.56;4993968;28;20203;-74
2021/04/20 05:42:35;;;;;;;15.60;10.77;;;;;;;6.10;100.00;100643.53;4993931;28;20573;-75
2021/04/20 05:45:00;;;;;;;19.20;14.07;;;;;;;6.15;100.00;100654.34;4994017;28;20177;-74
2021/04/20 05:47:26;;;;;;;20.30;12.63;;;;;;;6.19;100.00;100650.81;4994067;28;20528;-75
2021/04/20 05:49:57;;;;;;;15.10;12.40;;;;;;;6.26;100.00;100648.63;4993961;28;20235;-74
2021/04/20 05:52:22;;;;;;;20.10;14.17;;;;;;;6.33;100.00;100653.72;4993709;28;20660;-75
2021/04/20 05:54:48;;;;;;;17.87;13.37;;;;;;;6.40;100.00;100653.44;4994235;28;20306;-77
2021/04/20 05:57:17;;;;;;;16.23;14.53;;;;;;;6.43;100.00;100644.75;4993881;28;20172;-74
2021/04/20 05:59:45;;;;;;;20.57;13.77;;;;;;;6.46;99.55;100649.59;4993872;28;20173;-73
2021/04/20 06:02:15;;;;;;;17.37;14.83;;;;;;;6.49;99.06;100647.13;4993025;28;20727;-75
2021/04/20 06:04:44;;;;;;;14.73;11.37;;;;;;;6.57;99.39;100653.91;4993677;28;20177;-75
2021/04/20 06:07:10;;;;;;;21.43;14.13;;;;;;;6.66;98.98;100651.44;4993555;28;20234;-74
2021/04/20 06:09:35;;;;;;;13.47;11.17;;;;;;;6.70;98.86;100652.47;4993458;28;20545;-76
2021/04/20 06:12:01;;;;;;;14.67;12.87;;;;;;;6.69;98.45;100651.66;4993485;28;20185;-74
2021/04/20 06:14:27;;;;;;;14.27;11.93;;;;;;;6.75;98.32;100653.25;4992047;28;20177;-74
2021/04/20 06:16:52;;;;;;;14.80;12.53;;;;;;;6.81;98.39;100654.84;4993540;28;20173;-75
2021/04/20 06:19:18;;;;;;;17.97;11.63;;;;;;;6.85;97.58;100660.53;4993438;28;20519;-74
2021/04/20 06:21:46;;;;;;;19.43;13.40;;;;;;;6.92;97.67;100657.50;4993216;28;20256;-74
2021/04/20 06:24:12;;;;;;;17.50;13.43;;;;;;;6.97;97.09;100655.56;4993251;28;20222;-73
2021/04/20 06:26:41;;;;;;;10.60;9.70;;;;;;;6.89;97.11;100653.44;4993220;28;20173;-75
2021/04/20 06:29:06;;;;;;;12.70;10.60;;;;;;;6.87;97.14;100652.91;4993056;28;20399;-74
2021/04/20 06:31:33;;;;;;;13.83;10.80;;;;;;;6.78;97.25;100657.28;5004106;28;20230;-74
2021/04/20 06:34:00;;;;;;;13.40;9.13;;;;;;;6.77;97.49;100655.69;5012803;28;20250;-74
2021/04/20 06:36:25;;;;;;;9.47;7.00;;;;;;;6.81;98.02;100652.13;5014112;28;20176;-75
2021/04/20 06:38:51;;;;;;;19.03;12.03;;;;;;;6.87;98.13;100650.19;5015660;28;20671;-75
2021/04/20 06:41:22;;;;;;;14.40;12.23;;;;;;;6.99;98.15;100658.00;5013313;28;20185;-77
2021/04/20 06:43:54;;;;;;;23.03;13.17;;;;;;;7.07;98.30;100657.38;5012524;28;20180;-73
2021/04/20 06:46:29;;;;;;;16.63;12.63;;;;;;;7.14;98.26;100653.25;5012502;28;20165;-73
2021/04/20 06:49:09;;;;;;;18.70;14.47;;;;;;;7.30;98.85;100655.88;5010775;28;20680;-73
2021/04/20 06:51:38;;;;;;;14.67;10.67;;;;;;;7.38;98.06;100655.25;5012227;28;20208;-73
2021/04/20 06:54:18;;;;;;;14.40;12.17;;;;;;;7.40;97.32;100655.78;5012080;28;20251;-74
2021/04/20 06:56:56;;;;;;;19.50;13.10;;;;;;;7.47;97.51;100651.63;5012121;28;20183;-74
2021/04/20 06:59:34;;;;;;;20.03;14.00;;;;;;;7.61;97.68;100656.41;5012069;28;20572;-73
2021/04/20 07:02:34;;;;;;;15.33;12.50;;;;;;;7.64;96.67;100651.19;5011313;28;20176;-74
2021/04/20 07:05:00;;;;;;;13.80;11.53;;;;;;;7.74;96.58;100651.09;4988887;28;20212;-73
2021/04/20 07:07:26;;;;;;;15.37;13.50;;;;;;;7.82;96.23;100652.41;5011750;28;20192;-74
2021/04/20 07:10:00;;;;;;;14.97;13.23;;;;;;;7.91;96.29;100649.84;5011591;28;20206;-75
2021/04/20 07:12:26;;;;;;;17.67;12.90;;;;;;;8.04;96.01;100649.16;5011163;28;20177;-73
2021/04/20 07:14:55;;;;;;;15.67;13.77;;;;;;;8.07;95.16;100637.69;5010926;28;20183;-75
2021/04/20 07:17:36;;;;;;;16.43;13.07;;;;;;;8.11;94.10;100637.94;5011555;28;20180;-76
2021/04/20 07:20:04;;;;;;;16.97;13.63;;;;;;;8.13;94.44;100641.19;5011221;28;20192;-78
2021/04/20 07:23:07;;;;;;;18.43;12.53;;;;;;;8.22;94.36;100639.41;5011341;28;20183;-79
2021/04/20 07:26:11;;;;;;;13.87;11.53;;;;;;;8.33;94.42;100638.19;5011349;28;20230;-77
2021/04/20 07:29:03;;;;;;;14.63;13.13;;;;;;;8.41;93.75;100644.97;5011380;28;20290;-79
2021/04/20 07:31:33;;;;;;;15.20;13.13;;;;;;;8.44;93.60;100647.09;5011499;28;20177;-78
2021/04/20 07:34:20;;;;;;;21.77;12.60;;;;;;;8.45;92.59;100643.25;5011052;28;20231;-78
2021/04/20 07:37:06;;;;;;;12.57;11.37;;;;;;;8.49;92.24;100641.56;5011324;28;20164;-79
2021/04/20 07:39:51;;;;;;;16.10;13.80;;;;;;;8.58;92.86;100642.53;5011193;28;20255;-75
2021/04/20 07:42:32;;;;;;;13.13;11.20;;;;;;;8.74;91.78;100646.69;5010971;28;20268;-75
2021/04/20 07:45:15;;;;;;;12.83;11.60;;;;;;;8.80;91.24;100640.03;5026084;28;20176;-79
2021/04/20 07:47:47;;;;;;;15.57;12.80;;;;;;;8.85;91.53;100641.91;5011019;28;20206;-73
2021/04/20 07:50:18;;;;;;;16.53;12.47;;;;;;;8.89;91.10;100643.72;5011120;28;20659;-76
2021/04/20 07:52:52;;;;;;;16.13;11.00;;;;;;;8.92;91.46;100629.50;5010862;28;20174;-75
2021/04/20 07:55:22;;;;;;;14.53;11.40;;;;;;;8.98;90.95;100629.44;5010879;28;20176;-79
2021/04/20 07:57:53;;;;;;;15.33;11.73;;;;;;;9.07;91.08;100628.47;5011052;28;20243;-74
2021/04/20 08:00:22;;;;;;;13.57;12.37;;;;;;;9.09;90.79;100628.16;5010879;28;20207;-77
2021/04/20 08:03:09;;;;;;;16.33;13.80;;;;;;;9.14;91.01;100620.72;5010605;28;20655;-74
2021/04/20 08:05:46;;;;;;;14.40;12.97;;;;;;;9.28;90.35;100626.22;5010896;28;20180;-73
2021/04/20 08:08:39;;;;;;;13.60;12.20;;;;;;;9.44;89.98;100622.13;5011015;28;20228;-75
2021/04/20 08:11:19;;;;;;;11.97;10.63;;;;;;;9.62;87.64;100620.44;5009548;28;20702;-74
2021/04/20 08:14:11;;;;;;;13.90;12.40;;;;;;;9.73;87.42;100621.88;5010195;28;20176;-74
2021/04/20 08:16:42;;;;;;;12.87;11.77;;;;;;;9.81;85.90;100613.00;5010894;28;20176;-76
2021/04/20 08:19:35;;;;;;;7.50;5.80;;;;;;;9.87;83.97;100616.44;5010675;28;20191;-75
2021/04/20 08:22:04;;;;;;;11.50;10.23;;;;;;;9.95;83.54;100612.19;5009454;28;20188;-76
2021/04/20 08:24:35;;;;;;;9.70;8.70;;;;;;;10.08;83.97;100608.66;5011851;28;20180;-73
2021/04/20 08:27:12;;;;;;;10.17;8.87;;;;;;;10.08;81.68;100605.94;5014992;28;20168;-75
2021/04/20 08:29:41;;;;;;;8.53;7.57;;;;;;;10.06;80.12;100599.97;5014975;28;20165;-75
2021/04/20 08:32:11;;;;;;;8.50;7.67;;;;;;;10.13;78.71;100603.91;5014369;28;20187;-74
2021/04/20 08:34:44;;;;;;;10.27;9.27;;;;;;;10.25;78.75;100606.13;5014850;28;20171;-74
2021/04/20 08:37:31;;;;;;;8.10;7.40;;;;;;;10.45;76.55;100607.66;5014377;28;20263;-74
2021/04/20 08:40:12;;;;;;;7.27;6.67;;;;;;;10.59;74.28;100613.09;5014263;28;20172;-74
2021/04/20 08:42:50;;;;;;;7.30;5.13;;;;;;;10.71;70.54;100616.91;5013940;28;20203;-75
2021/04/20 08:45:32;;;;;;;4.60;4.20;;;;;;;10.75;68.17;100599.88;5014261;28;20215;-74
2021/04/20 08:48:12;;;;;;;3.93;3.63;;;;;;;10.84;67.73;100601.56;5013013;28;20196;-74
2021/04/20 08:50:42;;;;;;;4.60;4.20;;;;;;;10.98;68.38;100609.69;5014243;28;20172;-74
2021/04/20 08:53:31;;;;;;;6.07;4.13;;;;;;;11.07;70.45;100605.13;5013948;28;20259;-72
2021/04/20 08:56:18;;;;;;;5.37;4.97;;;;;;;11.11;70.63;100603.38;5014182;28;20173;-74
2021/04/20 08:58:46;;;;;;;5.77;5.27;;;;;;;11.12;70.16;100609.66;5014022;28;20221;-72
2021/04/20 09:01:27;;;;;;;5.80;5.30;;;;;;;11.20;71.96;100603.44;5014008;28;20177;-76
2021/04/20 09:04:06;;;;;;;6.20;5.70;;;;;;;11.41;72.36;100607.25;5013771;28;20275;-74
2021/04/20 09:06:34;;;;;;;5.83;5.23;;;;;;;11.50;72.07;100594.44;5013931;28;20180;-76
2021/04/20 09:09:13;;;;;;;5.77;5.27;;;;;;;11.48;69.08;100593.16;5014042;28;20208;-74
2021/04/20 09:11:47;;;;;;;5.00;4.53;;;;;;;11.55;70.01;100591.56;5013672;28;20210;-74
2021/04/20 09:14:30;;;;;;;6.23;4.83;;;;;;;11.60;67.85;100593.38;5013242;28;20212;-74
2021/04/20 09:16:59;;;;;;;3.63;3.33;;;;;;;11.69;67.78;100591.47;5013701;28;20516;-75
2021/04/20 09:19:25;;;;;;;5.43;4.93;;;;;;;11.77;66.66;100606.34;5003053;28;20223;-73
2021/04/20 09:22:04;;;;;;;4.33;3.43;;;;;;;11.83;66.65;100600.44;4993784;28;20234;-72
2021/04/20 09:24:37;;;;;;;4.87;4.07;;;;;;;11.82;67.46;100596.09;4990334;28;20235;-71
2021/04/20 09:27:10;;;;;;;4.97;4.50;;;;;;;11.81;67.10;100599.94;4994107;28;20178;-71
2021/04/20 09:29:55;;;;;;;4.03;3.73;;;;;;;12.02;67.64;100602.13;4993916;28;20184;-72
2021/04/20 09:32:30;;;;;;;5.33;4.83;;;;;;;12.11;67.76;100606.50;4993742;28;20169;-71
2021/04/20 09:34:57;;;;;;;2.80;2.60;;;;;;;12.17;66.31;100604.44;4993703;28;20180;-72
2021/04/20 09:37:24;;;;;;;4.80;4.30;;;;;;;12.15;67.28;100599.28;4991554;28;20181;-72
2021/04/20 09:39:53;;;;;;;7.70;3.97;;;;;;;12.28;67.31;100600.25;4993511;28;20224;-72
2021/04/20 09:42:21;;;;;;;4.13;3.83;;;;;;;12.44;66.54;100604.19;5025318;28;20248;-71
2021/04/20 09:45:08;;;;;;;5.87;3.50;;;;;;;12.59;66.66;100591.16;4993656;28;20188;-75
2021/04/20 09:48:05;;;;;;;9.20;4.43;;;;;;;12.58;65.49;100589.50;4993629;28;20188;-74
2021/04/20 09:50:33;;;;;;;4.20;3.90;;;;;;;12.62;66.13;100588.56;4992500;28;20292;-72
2021/04/20 09:53:20;;;;;;;4.53;4.17;;;;;;;12.77;66.03;100592.75;4993448;28;20180;-71
2021/04/20 09:55:53;;;;;;;4.07;3.77;;;;;;;12.86;65.67;100590.81;4993723;28;20161;-72
2021/04/20 09:58:20;;;;;;;4.17;3.77;;;;;;;12.92;65.45;100588.72;4993642;28;20629;-74
2021/04/20 10:00:49;;;;;;;4.97;3.83;;;;;;;12.90;64.46;100588.25;4993790;28;20184;-74
2021/04/20 10:03:27;;;;;;;3.77;3.47;;;;;;;12.88;65.57;100587.75;4993197;28;20233;-74
2021/04/20 10:06:11;;;;;;;4.43;3.77;;;;;;;13.02;67.13;100588.41;4992907;28;20716;-74
2021/04/20 10:08:39;;;;;;;3.27;3.07;;;;;;;12.94;64.59;100583.72;4993473;28;20788;-74
2021/04/20 10:11:12;;;;;;;4.27;3.97;;;;;;;13.11;65.59;100591.94;4991910;28;20592;-74
2021/04/20 10:13:56;;;;;;;4.93;4.43;;;;;;;13.42;64.53;100590.94;4992942;28;20533;-74
2021/04/20 10:16:27;;;;;;;5.70;3.93;;;;;;;13.40;63.73;100594.00;4993439;28;20177;-73
2021/04/20 10:18:57;;;;;;;3.50;3.27;;;;;;;13.35;64.72;100588.69;4993124;28;20256;-71
2021/04/20 10:21:39;;;;;;;3.77;3.47;;;;;;;13.51;65.47;100587.03;4993150;28;20177;-72
2021/04/20 10:24:16;;;;;;;3.90;3.60;;;;;;;13.50;64.95;100585.44;4993012;28;20177;-72
2021/04/20 10:26:47;;;;;;;4.37;3.43;;;;;;;13.74;65.92;100575.81;4993033;28;20268;-73
2021/04/20 10:29:33;;;;;;;4.60;4.20;;;;;;;13.67;64.68;100573.56;4993010;28;20216;-72
2021/04/20 10:32:36;;;;;;;3.07;2.87;;;;;;;13.99;65.43;100572.13;4992736;28;20658;-74
2021/04/20 10:35:05;;;;;;;4.63;4.23;;;;;;;14.12;63.81;100570.28;4990077;28;20196;-75
2021/04/20 10:37:37;;;;;;;4.47;3.77;;;;;;;14.08;63.74;100563.88;4990054;28;20181;-75
2021/04/20 10:40:08;;;;;;;6.23;3.60;;;;;;;13.99;64.89;100561.16;4991368;28;20205;-74
2021/04/20 10:42:35;;;;;;;3.60;3.30;;;;;;;14.17;65.73;100556.34;4992617;28;20577;-71
2021/04/20 10:45:01;;;;;;;4.43;4.03;;;;;;;14.21;64.53;100554.56;4992653;28;20220;-72
2021/04/20 10:47:27;;;;;;;5.20;4.70;;;;;;;14.16;62.56;100555.56;4992392;28;20193;-72
2021/04/20 10:49:57;;;;;;;3.90;3.60;;;;;;;14.26;62.21;100555.19;4992905;28;20174;-74
2021/04/20 10:52:27;;;;;;;6.27;4.73;;;;;;;13.92;62.26;100556.19;4992452;28;20219;-75
2021/04/20 10:54:54;;;;;;;4.47;4.03;;;;;;;14.11;62.47;100544.75;4992749;28;20200;-72
2021/04/20 10:57:21;;;;;;;4.50;4.10;;;;;;;13.79;62.03;100545.44;4992787;28;20529;-72
2021/04/20 10:59:51;;;;;;;3.07;2.87;;;;;;;14.20;63.54;100542.78;4992428;28;20604;-72
2021/04/20 11:02:26;;;;;;;5.40;4.50;;;;;;;14.14;62.81;100535.84;4992263;28;20542;-73
2021/04/20 11:04:53;;;;;;;5.03;3.93;;;;;;;14.23;63.16;100533.06;4992038;28;20203;-71
2021/04/20 11:07:21;;;;;;;4.43;4.03;;;;;;;14.47;62.88;100535.19;4984236;28;20191;-72
2021/04/20 11:09:58;;;;;;;6.43;3.30;;;;;;;14.60;60.98;100536.84;4974091;28;20190;-72
2021/04/20 11:12:24;;;;;;;4.43;4.13;;;;;;;14.58;63.98;100534.44;4972502;28;20181;-75
2021/04/20 11:14:53;;;;;;;4.13;3.80;;;;;;;14.71;61.97;100529.78;4972458;28;20630;-72
2021/04/20 11:17:23;;;;;;;4.63;4.20;;;;;;;14.84;63.90;100528.72;4972902;28;20674;-71
2021/04/20 11:19:55;;;;;;;4.07;3.70;;;;;;;15.04;62.99;100529.00;4972550;28;20169;-74
2021/04/20 11:22:23;;;;;;;3.93;3.63;;;;;;;15.00;61.80;100525.31;4972578;28;20182;-71
2021/04/20 11:24:58;;;;;;;4.87;4.50;;;;;;;14.51;62.14;100522.38;4972682;28;20181;-72
2021/04/20 11:27:29;;;;;;;4.40;4.03;;;;;;;14.51;64.35;100531.44;4972408;28;20170;-71
2021/04/20 11:30:17;;;;;;;3.83;3.53;;;;;;;15.01;61.32;100530.47;4972389;28;20166;-73
2021/04/20 11:32:53;;;;;;;3.70;3.40;;;;;;;15.19;61.93;100528.38;4972293;28;20504;-71
2021/04/20 11:35:24;;;;;;;4.20;3.90;;;;;;;15.30;61.36;100521.28;4972325;28;20174;-72